Time;durP1;ratioP1;P1;durP2;ratioP2;P2;SDS_P1;SDS_P2;PMS_P1;PMS_P2;Temp;Humidity;BMP_temperature;BMP_pressure;BME280_temperature;BME280_humidity;BME280_pressure;Samples;Min_cycle;Max_cycle;Signal;HPM_P1;HPM_P2
2023/10/14 00:04:26;;;;;;;20.85;7.38;;;;;;;;;;5081094;28;20408;-36
2023/10/14 00:06:54;;;;;;;19.38;6.20;;;;;;;;;;5080952;28;20040;-35
2023/10/14 00:09:21;;;;;;;19.60;5.82;;;;;;;;;;5081102;28;20028;-33
2023/10/14 00:11:56;;;;;;;19.90;5.65;;;;;;;;;;5081006;28;20317;-42
2023/10/14 00:14:23;;;;;;;10.18;4.78;;;;;;;;;;5080885;28;20471;-38
2023/10/14 00:16:51;;;;;;;18.60;5.00;;;;;;;;;;5080752;28;20016;-41
2023/10/14 00:19:24;;;;;;;11.02;4.50;;;;;;;;;;5080517;28;20058;-40
2023/10/14 00:21:51;;;;;;;10.90;4.45;;;;;;;;;;5080623;28;20020;-43
2023/10/14 00:24:27;;;;;;;9.15;4.47;;;;;;;;;;5080762;28;20035;-42
2023/10/14 00:27:07;;;;;;;13.75;4.50;;;;;;;;;;5080538;28;20225;-42
2023/10/14 00:29:35;;;;;;;9.27;4.70;;;;;;;;;;5080698;28;20051;-45
2023/10/14 00:32:05;;;;;;;9.10;4.28;;;;;;;;;;5080696;28;20055;-42
2023/10/14 00:34:32;;;;;;;8.02;4.40;;;;;;;;;;5080301;28;20030;-42
2023/10/14 00:36:59;;;;;;;9.95;4.00;;;;;;;;;;5080440;28;20032;-42
2023/10/14 00:39:28;;;;;;;10.55;4.18;;;;;;;;;;5080581;28;20016;-42
2023/10/14 00:41:56;;;;;;;10.65;4.40;;;;;;;;;;5080281;28;20033;-42
2023/10/14 00:44:27;;;;;;;7.40;4.10;;;;;;;;;;5080399;28;20021;-41
2023/10/14 00:46:56;;;;;;;9.93;3.85;;;;;;;;;;5080181;28;20023;-40
2023/10/14 00:49:33;;;;;;;7.32;3.90;;;;;;;;;;5080104;28;20031;-41
2023/10/14 00:52:03;;;;;;;13.35;4.15;;;;;;;;;;5080182;28;20017;-39
2023/10/14 00:59:47;;;;;;;15.05;5.13;;;;;;;;;;5080002;28;20017;-43
2023/10/14 01:02:14;;;;;;;15.90;6.03;;;;;;;;;;5076589;28;20044;-36
2023/10/14 01:04:48;;;;;;;14.00;6.10;;;;;;;;;;5068399;28;20017;-37
2023/10/14 01:07:15;;;;;;;12.48;5.38;;;;;;;;;;5064841;28;20070;-39
2023/10/14 01:15:20;;;;;;;10.55;4.88;;;;;;;;;;5075302;28;20063;-40
2023/10/14 01:17:47;;;;;;;15.02;4.88;;;;;;;;;;5083607;28;20036;-36
2023/10/14 01:22:44;;;;;;;14.68;4.38;;;;;;;;;;5064705;28;20083;-41
2023/10/14 01:25:15;;;;;;;14.88;4.90;;;;;;;;;;5062966;28;20032;-44
2023/10/14 01:27:44;;;;;;;15.32;4.25;;;;;;;;;;5065261;28;20309;-43
2023/10/14 01:30:20;;;;;;;14.35;4.32;;;;;;;;;;5066185;28;20075;-38
2023/10/14 01:35:41;;;;;;;10.50;4.32;;;;;;;;;;5054500;28;20059;-47
2023/10/14 01:38:01;;;;;;;13.75;4.55;;;;;;;;;;5057534;28;20041;-34
2023/10/14 01:42:57;;;;;;;10.68;4.47;;;;;;;;;;5058996;28;20237;-40
2023/10/14 01:45:29;;;;;;;12.63;4.80;;;;;;;;;;5064775;28;20083;-41
2023/10/14 01:50:38;;;;;;;8.23;4.10;;;;;;;;;;5064254;28;20101;-43
2023/10/14 01:53:10;;;;;;;10.65;4.25;;;;;;;;;;5061823;28;20035;-36
2023/10/14 01:55:43;;;;;;;7.72;4.32;;;;;;;;;;5047830;28;20029;-34
2023/10/14 01:58:13;;;;;;;16.30;4.30;;;;;;;;;;5054718;28;20318;-40
2023/10/14 02:00:46;;;;;;;11.80;4.50;;;;;;;;;;5065180;28;20024;-40
2023/10/14 02:03:15;;;;;;;9.57;3.95;;;;;;;;;;5065092;28;20076;-43
2023/10/14 02:05:42;;;;;;;8.25;3.97;;;;;;;;;;5065865;28;20027;-40
2023/10/14 02:08:15;;;;;;;8.20;4.50;;;;;;;;;;5065195;28;20328;-41
2023/10/14 02:10:47;;;;;;;8.68;4.43;;;;;;;;;;5051445;28;20087;-40
2023/10/14 02:13:15;;;;;;;7.75;4.60;;;;;;;;;;5050353;28;20080;-48
2023/10/14 02:15:49;;;;;;;8.52;4.57;;;;;;;;;;5058857;28;20096;-39
2023/10/14 02:18:21;;;;;;;8.80;4.10;;;;;;;;;;5059732;28;20080;-41
2023/10/14 02:20:57;;;;;;;13.68;4.28;;;;;;;;;;5050706;28;20078;-42
2023/10/14 02:23:35;;;;;;;9.05;4.32;;;;;;;;;;5045473;28;20097;-42
2023/10/14 02:26:08;;;;;;;15.52;4.82;;;;;;;;;;5052143;28;20096;-44
2023/10/14 02:28:40;;;;;;;11.27;4.60;;;;;;;;;;5065383;28;20021;-38
2023/10/14 02:31:50;;;;;;;11.57;4.55;;;;;;;;;;5064933;28;20032;-40
2023/10/14 02:34:05;;;;;;;10.15;4.40;;;;;;;;;;5066954;28;20410;-39
2023/10/14 02:36:35;;;;;;;8.15;4.53;;;;;;;;;;5059889;28;20029;-41
2023/10/14 02:39:12;;;;;;;12.95;4.80;;;;;;;;;;5045706;28;20030;-46
2023/10/14 02:41:40;;;;;;;19.05;5.22;;;;;;;;;;5044804;28;20029;-41
2023/10/14 02:46:34;;;;;;;13.00;4.90;;;;;;;;;;5044850;28;20096;-43
2023/10/14 02:49:06;;;;;;;9.93;4.55;;;;;;;;;;5044795;28;20026;-41
2023/10/14 02:51:41;;;;;;;10.05;4.40;;;;;;;;;;5046711;28;20092;-39
2023/10/14 02:57:00;;;;;;;10.25;4.50;;;;;;;;;;5045130;28;20344;-39
2023/10/14 03:02:25;;;;;;;10.80;4.65;;;;;;;;;;5062945;28;20027;-38
2023/10/14 03:10:12;;;;;;;9.95;4.85;;;;;;;;;;5052796;28;20040;-41
2023/10/14 03:12:48;;;;;;;10.30;4.28;;;;;;;;;;5057277;28;20029;-49
2023/10/14 03:15:19;;;;;;;9.55;4.50;;;;;;;;;;5064049;28;20032;-40
2023/10/14 03:17:53;;;;;;;9.05;4.35;;;;;;;;;;5063632;28;20075;-42
2023/10/14 03:22:57;;;;;;;6.47;4.97;;;;;;;;;;5064301;28;20049;-42
2023/10/14 03:25:23;;;;;;;13.48;5.28;;;;;;;;;;5064404;28;20225;-44
2023/10/14 03:28:15;;;;;;;13.77;4.80;;;;;;;;;;5063763;28;20055;-44
2023/10/14 03:30:45;;;;;;;11.02;4.90;;;;;;;;;;5062137;28;20028;-48
2023/10/14 03:33:13;;;;;;;9.93;4.95;;;;;;;;;;5062566;28;20297;-39
2023/10/14 03:35:54;;;;;;;10.88;4.93;;;;;;;;;;5064002;28;20027;-46
2023/10/14 03:38:25;;;;;;;14.00;5.35;;;;;;;;;;5064058;28;20032;-40
2023/10/14 03:41:03;;;;;;;13.43;5.20;;;;;;;;;;5063909;28;20048;-45
2023/10/14 03:43:44;;;;;;;9.57;6.15;;;;;;;;;;5064239;28;20101;-40
2023/10/14 03:46:12;;;;;;;9.55;6.43;;;;;;;;;;5051780;28;20056;-46
2023/10/14 03:48:47;;;;;;;12.70;7.15;;;;;;;;;;5062974;28;20196;-39
2023/10/14 03:51:24;;;;;;;15.15;7.97;;;;;;;;;;5063726;28;20025;-43
2023/10/14 03:54:12;;;;;;;19.60;10.55;;;;;;;;;;5064269;28;20148;-40
2023/10/14 03:56:44;;;;;;;18.55;11.00;;;;;;;;;;5063749;28;20032;-40
2023/10/14 03:59:12;;;;;;;20.25;9.48;;;;;;;;;;5064145;28;20032;-44
2023/10/14 04:04:16;;;;;;;17.98;8.23;;;;;;;;;;5063532;28;20071;-40
2023/10/14 04:06:51;;;;;;;14.38;7.65;;;;;;;;;;5063765;28;20020;-38
2023/10/14 04:09:23;;;;;;;8.27;6.40;;;;;;;;;;5063622;28;20052;-42
2023/10/14 04:11:54;;;;;;;10.70;6.38;;;;;;;;;;5063584;28;20067;-40
2023/10/14 04:14:27;;;;;;;10.80;6.72;;;;;;;;;;5063546;28;20048;-44
2023/10/14 04:19:47;;;;;;;8.63;5.38;;;;;;;;;;5063467;28;20033;-46
2023/10/14 04:22:38;;;;;;;12.50;5.47;;;;;;;;;;5063469;28;20025;-46
2023/10/14 04:27:54;;;;;;;8.95;5.00;;;;;;;;;;5063678;28;20083;-42
2023/10/14 04:35:26;;;;;;;7.18;4.65;;;;;;;;;;5063343;28;20071;-46
2023/10/14 04:37:57;;;;;;;8.55;5.03;;;;;;;;;;5063695;28;20187;-40
2023/10/14 04:40:53;;;;;;;8.88;4.97;;;;;;;;;;5062287;28;20033;-46
2023/10/14 04:45:52;;;;;;;8.20;4.80;;;;;;;;;;5062993;28;20078;-39
2023/10/14 04:48:35;;;;;;;9.57;4.90;;;;;;;;;;5063570;28;20197;-44
2023/10/14 04:51:19;;;;;;;10.45;5.25;;;;;;;;;;5066850;28;20025;-42
2023/10/14 04:53:49;;;;;;;10.65;4.80;;;;;;;;;;5067593;28;20032;-45
2023/10/14 04:56:29;;;;;;;11.93;5.05;;;;;;;;;;5066959;28;20376;-44
2023/10/14 04:58:57;;;;;;;7.63;5.05;;;;;;;;;;5067416;28;20035;-39
2023/10/14 05:01:27;;;;;;;5.32;4.60;;;;;;;;;;5066657;28;20036;-40
2023/10/14 05:03:58;;;;;;;6.43;4.95;;;;;;;;;;5066547;28;20048;-39
2023/10/14 05:06:40;;;;;;;8.68;5.10;;;;;;;;;;5066866;28;20013;-40
2023/10/14 05:09:25;;;;;;;12.23;5.35;;;;;;;;;;5067144;28;20100;-41
2023/10/14 05:11:52;;;;;;;8.88;4.80;;;;;;;;;;5066612;28;20028;-39
2023/10/14 05:14:25;;;;;;;9.35;6.00;;;;;;;;;;5066527;28;20052;-40
2023/10/14 05:16:56;;;;;;;8.30;6.07;;;;;;;;;;5066075;28;20076;-48
2023/10/14 05:19:47;;;;;;;9.50;5.20;;;;;;;;;;5066617;28;20029;-42
2023/10/14 05:22:18;;;;;;;7.53;5.05;;;;;;;;;;5066542;28;20063;-43
2023/10/14 05:24:48;;;;;;;8.20;5.25;;;;;;;;;;5066281;28;20028;-47
2023/10/14 05:27:19;;;;;;;7.93;4.70;;;;;;;;;;5066494;28;20029;-40
2023/10/14 05:29:52;;;;;;;6.45;5.00;;;;;;;;;;5066369;28;20033;-45
2023/10/14 05:32:23;;;;;;;7.90;4.93;;;;;;;;;;5065952;28;20305;-40
2023/10/14 05:34:53;;;;;;;8.38;4.93;;;;;;;;;;5066527;28;20324;-40
2023/10/14 05:37:24;;;;;;;11.88;5.10;;;;;;;;;;5066260;28;20083;-37
2023/10/14 05:39:54;;;;;;;9.15;4.72;;;;;;;;;;5066384;28;20075;-44
2023/10/14 05:42:21;;;;;;;9.35;4.75;;;;;;;;;;5066182;28;20036;-39
2023/10/14 05:44:57;;;;;;;10.38;4.95;;;;;;;;;;5065994;28;20033;-40
2023/10/14 05:47:27;;;;;;;8.40;4.80;;;;;;;;;;5066209;28;20084;-41
2023/10/14 05:49:54;;;;;;;8.70;4.60;;;;;;;;;;5066298;28;20025;-39
2023/10/14 05:52:27;;;;;;;12.45;6.05;;;;;;;;;;5065931;28;20024;-41
2023/10/14 05:54:53;;;;;;;8.85;4.97;;;;;;;;;;5066049;28;20035;-41
2023/10/14 05:57:20;;;;;;;9.10;5.72;;;;;;;;;;5065775;28;20039;-39
2023/10/14 05:59:49;;;;;;;8.93;4.95;;;;;;;;;;5065656;28;20036;-46
2023/10/14 06:02:16;;;;;;;6.47;5.13;;;;;;;;;;5065659;28;20036;-40
2023/10/14 06:04:43;;;;;;;7.13;5.25;;;;;;;;;;5065623;28;20024;-45
2023/10/14 06:07:14;;;;;;;10.55;5.20;;;;;;;;;;5065845;28;20029;-45
2023/10/14 06:09:47;;;;;;;6.88;5.50;;;;;;;;;;5065715;28;20034;-44
2023/10/14 06:12:16;;;;;;;8.45;5.38;;;;;;;;;;5065523;28;20037;-41
2023/10/14 06:14:43;;;;;;;6.50;5.40;;;;;;;;;;5065079;28;20017;-40
2023/10/14 06:17:11;;;;;;;9.63;4.80;;;;;;;;;;5065618;28;20321;-39
2023/10/14 06:19:38;;;;;;;6.43;4.88;;;;;;;;;;5065141;28;20076;-42
2023/10/14 06:22:08;;;;;;;7.00;5.18;;;;;;;;;;5065547;28;20097;-42
2023/10/14 06:24:35;;;;;;;6.72;4.82;;;;;;;;;;5065395;28;20031;-45
2023/10/14 06:27:08;;;;;;;6.88;4.80;;;;;;;;;;5065126;28;20317;-43
2023/10/14 06:29:35;;;;;;;6.55;5.10;;;;;;;;;;5064936;28;20024;-39
2023/10/14 06:32:03;;;;;;;7.72;5.60;;;;;;;;;;5065181;28;20091;-42
2023/10/14 06:34:34;;;;;;;9.90;7.40;;;;;;;;;;5065144;28;20035;-44
2023/10/14 06:37:02;;;;;;;12.13;6.90;;;;;;;;;;5065305;28;20017;-42
2023/10/14 06:39:38;;;;;;;9.90;6.05;;;;;;;;;;5065256;28;20025;-47
2023/10/14 06:42:05;;;;;;;7.38;5.20;;;;;;;;;;5064849;28;20037;-40
2023/10/14 06:44:32;;;;;;;10.60;5.88;;;;;;;;;;5064565;28;20220;-46
2023/10/14 06:46:59;;;;;;;7.45;5.45;;;;;;;;;;5064756;28;20313;-46
2023/10/14 06:49:32;;;;;;;7.75;5.22;;;;;;;;;;5064824;28;20332;-42
2023/10/14 06:51:59;;;;;;;8.02;5.60;;;;;;;;;;5064627;28;20031;-40
2023/10/14 06:54:26;;;;;;;7.32;5.35;;;;;;;;;;5064378;28;20039;-41
2023/10/14 06:56:56;;;;;;;9.93;4.88;;;;;;;;;;5064679;28;20032;-46
2023/10/14 06:59:22;;;;;;;6.78;5.18;;;;;;;;;;5050234;28;20345;-40
2023/10/14 07:01:49;;;;;;;9.20;5.40;;;;;;;;;;5048225;28;20025;-39
2023/10/14 07:04:16;;;;;;;6.32;4.88;;;;;;;;;;5044423;28;20075;-46
2023/10/14 07:06:48;;;;;;;8.60;5.63;;;;;;;;;;5044632;28;20225;-45
2023/10/14 07:09:18;;;;;;;6.32;5.35;;;;;;;;;;5044702;28;20093;-51
2023/10/14 07:11:46;;;;;;;8.63;5.38;;;;;;;;;;5043994;28;20088;-45
2023/10/14 07:14:12;;;;;;;6.57;5.20;;;;;;;;;;5043979;28;20253;-47
2023/10/14 07:16:40;;;;;;;7.07;5.50;;;;;;;;;;5044441;28;20067;-42
2023/10/14 07:19:07;;;;;;;9.90;5.53;;;;;;;;;;5044875;28;20071;-40
2023/10/14 07:21:33;;;;;;;9.30;5.07;;;;;;;;;;5044225;28;20021;-41
2023/10/14 07:24:05;;;;;;;7.97;5.30;;;;;;;;;;5044773;28;20035;-42
2023/10/14 07:26:36;;;;;;;7.28;5.07;;;;;;;;;;5044353;28;20101;-43
2023/10/14 07:29:05;;;;;;;8.97;5.33;;;;;;;;;;5044312;28;20402;-39
2023/10/14 07:31:32;;;;;;;6.40;4.90;;;;;;;;;;5044329;28;20029;-40
2023/10/14 07:34:02;;;;;;;7.53;5.15;;;;;;;;;;5044701;28;20218;-45
2023/10/14 07:36:30;;;;;;;9.63;5.25;;;;;;;;;;5044075;28;20028;-40
2023/10/14 07:39:26;;;;;;;7.07;5.70;;;;;;;;;;5044632;28;20093;-46
2023/10/14 07:41:52;;;;;;;7.72;5.50;;;;;;;;;;5043947;28;20211;-40
2023/10/14 07:44:19;;;;;;;11.75;5.32;;;;;;;;;;5043598;28;20029;-41
2023/10/14 07:46:47;;;;;;;6.72;5.53;;;;;;;;;;5043889;28;20043;-37
2023/10/14 07:49:16;;;;;;;7.30;5.47;;;;;;;;;;5044052;28;20280;-45
2023/10/14 07:51:43;;;;;;;7.75;5.55;;;;;;;;;;5044032;28;20021;-39
2023/10/14 07:54:12;;;;;;;12.02;5.38;;;;;;;;;;5044352;28;20286;-50
2023/10/14 07:56:42;;;;;;;9.00;5.35;;;;;;;;;;5044169;28;20249;-41
2023/10/14 07:59:10;;;;;;;8.50;5.20;;;;;;;;;;5043985;28;20037;-39
2023/10/14 08:01:38;;;;;;;10.18;5.50;;;;;;;;;;5043658;28;20075;-39
2023/10/14 08:04:13;;;;;;;6.95;5.68;;;;;;;;;;5043506;28;20075;-40
2023/10/14 08:06:40;;;;;;;11.85;5.80;;;;;;;;;;5044040;28;20037;-44
2023/10/14 08:09:23;;;;;;;7.72;5.25;;;;;;;;;;5043510;28;20028;-40
2023/10/14 08:11:51;;;;;;;7.15;5.70;;;;;;;;;;5043684;28;20029;-40
2023/10/14 08:14:18;;;;;;;8.88;5.35;;;;;;;;;;5043240;28;20071;-40
2023/10/14 08:16:45;;;;;;;6.85;5.57;;;;;;;;;;5043596;28;20337;-40
2023/10/14 08:19:12;;;;;;;7.38;5.20;;;;;;;;;;5043678;28;20063;-41
2023/10/14 08:21:39;;;;;;;11.15;5.88;;;;;;;;;;5043600;28;20026;-40
2023/10/14 08:24:06;;;;;;;6.32;4.97;;;;;;;;;;5044590;28;20044;-45
2023/10/14 08:26:34;;;;;;;8.82;5.40;;;;;;;;;;5047713;28;20059;-43
2023/10/14 08:29:01;;;;;;;7.95;5.38;;;;;;;;;;5047142;28;20088;-44
2023/10/14 08:31:32;;;;;;;6.28;5.20;;;;;;;;;;5047517;28;20025;-40
2023/10/14 08:33:59;;;;;;;6.10;4.93;;;;;;;;;;5047970;28;20072;-47
2023/10/14 08:36:26;;;;;;;8.65;5.53;;;;;;;;;;5047330;28;20071;-49
2023/10/14 08:38:53;;;;;;;8.10;5.25;;;;;;;;;;5047698;28;20041;-45
2023/10/14 08:41:20;;;;;;;8.02;5.10;;;;;;;;;;5047431;28;20021;-43
2023/10/14 08:43:49;;;;;;;11.10;5.40;;;;;;;;;;5047238;28;20032;-48
2023/10/14 08:46:18;;;;;;;7.47;4.95;;;;;;;;;;5047555;28;20029;-45
2023/10/14 08:48:50;;;;;;;10.10;5.30;;;;;;;;;;5047587;28;20025;-40
2023/10/14 08:51:17;;;;;;;8.33;5.50;;;;;;;;;;5047046;28;20021;-39
2023/10/14 08:53:46;;;;;;;6.97;4.97;;;;;;;;;;5047504;28;20280;-41
2023/10/14 08:56:12;;;;;;;10.90;5.18;;;;;;;;;;5047097;28;20025;-39
2023/10/14 08:58:39;;;;;;;9.43;5.18;;;;;;;;;;5046981;28;20040;-40
2023/10/14 09:01:07;;;;;;;8.27;4.80;;;;;;;;;;5046914;28;20074;-40
2023/10/14 09:03:35;;;;;;;7.78;4.60;;;;;;;;;;5046733;28;20041;-46
2023/10/14 09:06:06;;;;;;;10.63;4.55;;;;;;;;;;5046839;28;20049;-39
2023/10/14 09:08:33;;;;;;;6.55;4.18;;;;;;;;;;5047368;28;20025;-39
2023/10/14 09:11:00;;;;;;;9.30;4.50;;;;;;;;;;5046729;28;20249;-41
2023/10/14 09:13:26;;;;;;;9.07;4.50;;;;;;;;;;5046431;28;20083;-39
2023/10/14 09:15:58;;;;;;;6.85;4.28;;;;;;;;;;5046648;28;20053;-53
2023/10/14 09:18:28;;;;;;;;;;;;;;;;;;5062593;28;20222;-40
2023/10/14 09:20:55;;;;;;;10.38;4.35;;;;;;;;;;5046657;28;19905;-39
2023/10/14 09:23:39;;;;;;;10.18;3.97;;;;;;;;;;5046866;28;20052;-40
2023/10/14 09:26:06;;;;;;;7.07;4.25;;;;;;;;;;5046497;28;20025;-40
2023/10/14 09:28:34;;;;;;;11.05;4.57;;;;;;;;;;5046620;28;20259;-45
2023/10/14 09:31:02;;;;;;;8.25;4.15;;;;;;;;;;5046326;28;20071;-44
2023/10/14 09:33:31;;;;;;;10.48;3.90;;;;;;;;;;5046721;28;20033;-48
2023/10/14 09:35:59;;;;;;;8.18;4.30;;;;;;;;;;5045867;28;20036;-39
2023/10/14 09:38:27;;;;;;;5.88;3.92;;;;;;;;;;5046472;28;20033;-39
2023/10/14 09:40:58;;;;;;;8.70;4.00;;;;;;;;;;5046260;28;20022;-40
2023/10/14 09:43:25;;;;;;;7.20;3.70;;;;;;;;;;5050361;28;20194;-39
2023/10/14 09:45:56;;;;;;;7.30;4.22;;;;;;;;;;5061242;28;20025;-40
2023/10/14 09:48:26;;;;;;;8.35;4.07;;;;;;;;;;5066158;28;20134;-46
2023/10/14 09:50:57;;;;;;;8.52;4.55;;;;;;;;;;5065866;28;20252;-40
2023/10/14 09:53:33;;;;;;;8.73;3.85;;;;;;;;;;5066090;28;20027;-40
2023/10/14 09:56:08;;;;;;;7.97;4.15;;;;;;;;;;5065933;28;20033;-39
2023/10/14 09:58:44;;;;;;;5.95;4.13;;;;;;;;;;5065253;28;20135;-43
2023/10/14 10:01:15;;;;;;;7.20;4.03;;;;;;;;;;5065729;28;20083;-42
2023/10/14 10:03:44;;;;;;;9.20;4.07;;;;;;;;;;5065342;28;20044;-38
2023/10/14 10:06:36;;;;;;;8.48;3.97;;;;;;;;;;5065931;28;20029;-39
2023/10/14 10:09:19;;;;;;;10.40;4.25;;;;;;;;;;5064972;28;20025;-43
2023/10/14 10:11:48;;;;;;;8.98;4.20;;;;;;;;;;5065421;28;20044;-42
2023/10/14 10:14:18;;;;;;;7.97;3.92;;;;;;;;;;5065367;28;20021;-39
2023/10/14 10:16:49;;;;;;;7.45;4.22;;;;;;;;;;5065457;28;20063;-48
2023/10/14 10:19:15;;;;;;;8.43;4.00;;;;;;;;;;5065419;28;20033;-42
2023/10/14 10:22:02;;;;;;;8.75;4.13;;;;;;;;;;5065301;28;20061;-41
2023/10/14 10:24:41;;;;;;;13.85;4.28;;;;;;;;;;5065329;28;20028;-49
2023/10/14 10:27:12;;;;;;;5.78;4.13;;;;;;;;;;5064910;28;20052;-39
2023/10/14 10:30:07;;;;;;;8.90;4.20;;;;;;;;;;5065375;28;20039;-39
2023/10/14 10:32:34;;;;;;;9.13;4.40;;;;;;;;;;5064980;28;20060;-38
2023/10/14 10:35:06;;;;;;;7.13;4.53;;;;;;;;;;5065253;28;20221;-41
2023/10/14 10:37:37;;;;;;;9.02;4.40;;;;;;;;;;5065124;28;20317;-45
2023/10/14 10:40:10;;;;;;;44.92;7.10;;;;;;;;;;5065086;28;20317;-40
2023/10/14 10:42:37;;;;;;;43.55;6.97;;;;;;;;;;5064821;28;20344;-40
2023/10/14 10:45:11;;;;;;;23.35;5.60;;;;;;;;;;5065002;28;20290;-45
2023/10/14 10:47:52;;;;;;;20.45;5.45;;;;;;;;;;5064081;28;20029;-45
2023/10/14 10:50:19;;;;;;;14.80;5.03;;;;;;;;;;5064906;28;20035;-41
2023/10/14 10:53:13;;;;;;;9.50;4.63;;;;;;;;;;5064993;28;20406;-47
2023/10/14 10:55:40;;;;;;;10.95;4.50;;;;;;;;;;5064013;28;20051;-40
2023/10/14 10:58:08;;;;;;;11.85;4.97;;;;;;;;;;5048994;28;20109;-41
2023/10/14 11:00:34;;;;;;;12.02;4.30;;;;;;;;;;5049490;28;20062;-40
2023/10/14 11:03:02;;;;;;;8.93;4.70;;;;;;;;;;5064375;28;20044;-43
2023/10/14 11:05:33;;;;;;;10.32;4.72;;;;;;;;;;5064606;28;20021;-40
2023/10/14 11:08:00;;;;;;;11.10;4.78;;;;;;;;;;5064842;28;20074;-44
2023/10/14 11:10:27;;;;;;;10.57;4.57;;;;;;;;;;5064500;28;20032;-44
2023/10/14 11:12:57;;;;;;;13.90;5.22;;;;;;;;;;5064363;28;20059;-42
2023/10/14 11:15:26;;;;;;;10.95;4.68;;;;;;;;;;5064089;28;20032;-39
2023/10/14 11:17:56;;;;;;;8.60;4.53;;;;;;;;;;5064558;28;20171;-41
2023/10/14 11:20:22;;;;;;;9.82;4.47;;;;;;;;;;5064324;28;20033;-43
2023/10/14 11:22:49;;;;;;;10.18;4.30;;;;;;;;;;5064158;28;20037;-44
2023/10/14 11:25:18;;;;;;;9.63;4.38;;;;;;;;;;5064262;28;20305;-41
2023/10/14 11:27:46;;;;;;;11.30;4.50;;;;;;;;;;5064213;28;20032;-42
2023/10/14 11:30:13;;;;;;;12.32;4.60;;;;;;;;;;5063954;28;20021;-41
2023/10/14 11:32:46;;;;;;;10.98;4.55;;;;;;;;;;5064350;28;20037;-39
2023/10/14 11:35:16;;;;;;;12.52;5.00;;;;;;;;;;5056373;28;20108;-41
2023/10/14 11:37:43;;;;;;;10.70;4.65;;;;;;;;;;5055177;28;20055;-46
2023/10/14 11:40:13;;;;;;;10.90;5.13;;;;;;;;;;5053708;28;20040;-39
2023/10/14 11:42:42;;;;;;;10.68;4.97;;;;;;;;;;5055547;28;20190;-40
2023/10/14 11:45:08;;;;;;;8.32;4.50;;;;;;;;;;5046790;28;20025;-42
2023/10/14 11:47:39;;;;;;;8.77;4.60;;;;;;;;;;5057335;28;20025;-40
2023/10/14 11:50:15;;;;;;;8.45;4.63;;;;;;;;;;5062057;28;20012;-43
2023/10/14 11:52:53;;;;;;;13.27;4.90;;;;;;;;;;5062277;28;20095;-38
2023/10/14 11:55:20;;;;;;;13.00;4.75;;;;;;;;;;5057663;28;20312;-48
2023/10/14 11:57:48;;;;;;;9.02;4.70;;;;;;;;;;5051602;28;20033;-49
2023/10/14 12:00:20;;;;;;;6.95;4.40;;;;;;;;;;5053057;28;20302;-42
2023/10/14 12:02:50;;;;;;;13.70;5.43;;;;;;;;;;5053885;28;20080;-38
2023/10/14 12:05:39;;;;;;;9.98;4.85;;;;;;;;;;5049125;28;20053;-36
2023/10/14 12:08:09;;;;;;;11.90;4.97;;;;;;;;;;5043810;28;20321;-38
2023/10/14 12:10:36;;;;;;;9.75;4.60;;;;;;;;;;5043740;28;20029;-39
2023/10/14 12:13:03;;;;;;;11.52;4.72;;;;;;;;;;5043691;28;20049;-41
2023/10/14 12:15:35;;;;;;;10.82;5.28;;;;;;;;;;5043620;28;20029;-37
2023/10/14 12:18:02;;;;;;;9.00;4.78;;;;;;;;;;5043922;28;20041;-40
2023/10/14 12:20:29;;;;;;;8.18;4.30;;;;;;;;;;5043536;28;20021;-37
2023/10/14 12:22:56;;;;;;;11.30;4.78;;;;;;;;;;5043755;28;20041;-36
2023/10/14 12:25:23;;;;;;;12.07;4.63;;;;;;;;;;5043519;28;20088;-37
2023/10/14 12:27:49;;;;;;;7.30;4.40;;;;;;;;;;5042984;28;20087;-41
2023/10/14 12:30:39;;;;;;;9.63;4.70;;;;;;;;;;5045063;28;20033;-43
2023/10/14 12:33:07;;;;;;;10.55;5.15;;;;;;;;;;5043710;28;20045;-34
2023/10/14 12:35:39;;;;;;;19.70;4.70;;;;;;;;;;5043406;28;20314;-42
2023/10/14 12:38:11;;;;;;;;;;;;;;;;;;5044039;28;20108;-39
2023/10/14 12:40:39;;;;;;;10.52;5.18;;;;;;;;;;5043065;28;19943;-45
2023/10/14 12:43:05;;;;;;;7.07;4.40;;;;;;;;;;5043770;28;20029;-38
2023/10/14 12:45:34;;;;;;;8.70;4.07;;;;;;;;;;5043428;28;20013;-37
2023/10/14 12:48:09;;;;;;;10.65;4.50;;;;;;;;;;5043566;28;20032;-35
2023/10/14 12:50:46;;;;;;;11.38;4.53;;;;;;;;;;5051759;28;20080;-40
2023/10/14 12:53:13;;;;;;;8.70;4.15;;;;;;;;;;5063096;28;20082;-41
2023/10/14 12:55:44;;;;;;;10.63;4.50;;;;;;;;;;5059573;28;20044;-42
2023/10/14 12:58:15;;;;;;;9.23;3.83;;;;;;;;;;5043172;28;20214;-47
2023/10/14 13:00:45;;;;;;;6.07;4.25;;;;;;;;;;5043459;28;20036;-39
2023/10/14 13:03:12;;;;;;;6.38;4.13;;;;;;;;;;5043080;28;20137;-46
2023/10/14 13:05:39;;;;;;;11.88;4.43;;;;;;;;;;5043634;28;20029;-44
2023/10/14 13:08:06;;;;;;;8.35;4.20;;;;;;;;;;5043044;28;20025;-43
2023/10/14 13:10:36;;;;;;;7.45;4.28;;;;;;;;;;5044278;28;20034;-46
2023/10/14 13:13:04;;;;;;;7.65;4.10;;;;;;;;;;5046626;28;20021;-40
2023/10/14 13:15:34;;;;;;;9.48;3.78;;;;;;;;;;5046856;28;20033;-39
2023/10/14 13:18:12;;;;;;;9.02;4.18;;;;;;;;;;5054715;28;20029;-41
2023/10/14 13:20:39;;;;;;;5.63;3.70;;;;;;;;;;5066751;28;20051;-51
2023/10/14 13:23:14;;;;;;;8.52;5.10;;;;;;;;;;5066359;28;20260;-43
2023/10/14 13:25:41;;;;;;;8.52;5.70;;;;;;;;;;5066545;28;20306;-41
2023/10/14 13:28:08;;;;;;;12.07;5.70;;;;;;;;;;5059990;28;20346;-39
2023/10/14 13:30:45;;;;;;;14.88;5.32;;;;;;;;;;5052955;28;20026;-40
2023/10/14 13:33:12;;;;;;;9.43;5.80;;;;;;;;;;5046658;28;20040;-40
2023/10/14 13:35:42;;;;;;;10.30;5.38;;;;;;;;;;5045290;28;20229;-42
2023/10/14 13:38:10;;;;;;;9.35;5.30;;;;;;;;;;5054548;28;20040;-42
2023/10/14 13:40:41;;;;;;;9.73;4.75;;;;;;;;;;5066045;28;20363;-33
2023/10/14 13:43:15;;;;;;;10.07;4.68;;;;;;;;;;5053638;28;20037;-35
2023/10/14 13:45:42;;;;;;;9.05;3.90;;;;;;;;;;5046498;28;20029;-35
2023/10/14 13:48:09;;;;;;;20.50;4.45;;;;;;;;;;5048561;28;20037;-39
2023/10/14 13:50:39;;;;;;;11.35;4.18;;;;;;;;;;5057523;28;20032;-36
2023/10/14 13:53:09;;;;;;;8.88;3.63;;;;;;;;;;5065821;28;20020;-41
2023/10/14 13:55:37;;;;;;;6.85;3.40;;;;;;;;;;5064504;28;20072;-43
2023/10/14 13:58:11;;;;;;;4.35;3.20;;;;;;;;;;5065740;28;20371;-46
2023/10/14 14:00:39;;;;;;;30.15;5.03;;;;;;;;;;5065889;28;20032;-42
2023/10/14 14:03:09;;;;;;;17.33;4.60;;;;;;;;;;5060657;28;20276;-35
2023/10/14 14:05:36;;;;;;;11.10;3.95;;;;;;;;;;5054440;28;20060;-42
2023/10/14 14:08:07;;;;;;;12.38;4.13;;;;;;;;;;5052974;28;20028;-42
2023/10/14 14:10:37;;;;;;;13.20;4.18;;;;;;;;;;5058533;28;20029;-44
2023/10/14 14:13:04;;;;;;;10.48;3.38;;;;;;;;;;5059214;28;20013;-40
2023/10/14 14:15:32;;;;;;;9.02;3.45;;;;;;;;;;5043699;28;20041;-39
2023/10/14 14:17:59;;;;;;;7.15;3.47;;;;;;;;;;5043651;28;20027;-40
2023/10/14 14:20:26;;;;;;;10.30;3.10;;;;;;;;;;5044076;28;20044;-41
2023/10/14 14:22:55;;;;;;;4.50;3.40;;;;;;;;;;5043482;28;20070;-36
2023/10/14 14:25:25;;;;;;;6.60;3.50;;;;;;;;;;5048462;28;20093;-34
2023/10/14 14:27:53;;;;;;;5.25;3.10;;;;;;;;;;5061331;28;20313;-34
2023/10/14 14:30:20;;;;;;;7.95;3.55;;;;;;;;;;5051701;28;20074;-33
2023/10/14 14:32:47;;;;;;;7.38;3.38;;;;;;;;;;5052464;28;20092;-34
2023/10/14 14:35:14;;;;;;;9.13;3.28;;;;;;;;;;5043937;28;20032;-36
2023/10/14 14:37:43;;;;;;;6.03;3.35;;;;;;;;;;5048961;28;20322;-39
2023/10/14 14:40:14;;;;;;;3.42;2.92;;;;;;;;;;5064198;28;20161;-42
2023/10/14 14:42:41;;;;;;;6.63;3.67;;;;;;;;;;5058590;28;20213;-39
2023/10/14 14:45:11;;;;;;;9.00;4.63;;;;;;;;;;5046317;28;20039;-42
2023/10/14 14:47:38;;;;;;;6.97;3.72;;;;;;;;;;5049022;28;20329;-45
2023/10/14 14:50:13;;;;;;;5.72;3.30;;;;;;;;;;5045940;28;20033;-38
2023/10/14 14:52:47;;;;;;;7.78;3.28;;;;;;;;;;5054762;28;20033;-44
2023/10/14 14:55:15;;;;;;;16.52;4.10;;;;;;;;;;5049541;28;20029;-47
2023/10/14 14:57:51;;;;;;;6.43;3.38;;;;;;;;;;5057965;28;20029;-39
2023/10/14 15:00:26;;;;;;;7.53;3.65;;;;;;;;;;5051451;28;20197;-46
2023/10/14 15:02:56;;;;;;;8.68;3.50;;;;;;;;;;5054826;28;20053;-39
2023/10/14 15:05:26;;;;;;;5.68;3.22;;;;;;;;;;5054395;28;20025;-42
2023/10/14 15:07:53;;;;;;;4.22;3.40;;;;;;;;;;5051741;28;20304;-49
2023/10/14 15:10:23;;;;;;;6.95;3.50;;;;;;;;;;5042702;28;20025;-40
2023/10/14 15:12:50;;;;;;;6.65;3.40;;;;;;;;;;5042813;28;20030;-49
2023/10/14 15:15:17;;;;;;;6.05;3.75;;;;;;;;;;5042375;28;20053;-40
2023/10/14 15:17:47;;;;;;;6.15;3.78;;;;;;;;;;5055612;28;20209;-49
2023/10/14 15:20:13;;;;;;;6.78;3.63;;;;;;;;;;5057413;28;20039;-43
2023/10/14 15:22:44;;;;;;;4.63;3.70;;;;;;;;;;5063539;28;20064;-38
2023/10/14 15:25:11;;;;;;;7.00;3.75;;;;;;;;;;5051415;28;20025;-37
2023/10/14 15:27:39;;;;;;;7.07;4.18;;;;;;;;;;5063389;28;20028;-49
2023/10/14 15:30:11;;;;;;;5.38;3.55;;;;;;;;;;5051915;28;20037;-48
2023/10/14 15:32:42;;;;;;;6.65;3.67;;;;;;;;;;5046516;28;20025;-43
2023/10/14 15:35:13;;;;;;;10.25;3.85;;;;;;;;;;5046356;28;20209;-42
2023/10/14 15:37:48;;;;;;;9.15;4.40;;;;;;;;;;5058457;28;20029;-36
2023/10/14 15:40:17;;;;;;;7.78;4.50;;;;;;;;;;5048722;28;20033;-41
2023/10/14 15:42:46;;;;;;;8.63;3.88;;;;;;;;;;5056971;28;20032;-49
2023/10/14 15:45:23;;;;;;;7.60;4.68;;;;;;;;;;5048643;28;20328;-44
2023/10/14 15:47:51;;;;;;;5.53;4.15;;;;;;;;;;5057319;28;20042;-44
2023/10/14 15:50:18;;;;;;;6.30;4.18;;;;;;;;;;5049145;28;20217;-41
2023/10/14 15:52:46;;;;;;;8.25;4.53;;;;;;;;;;5054609;28;20029;-43
2023/10/14 15:55:13;;;;;;;8.88;5.80;;;;;;;;;;5045797;28;20052;-43